Time;durP1;ratioP1;P1;durP2;ratioP2;P2;SDS_P1;SDS_P2;PMS_P1;PMS_P2;Temp;Humidity;BMP_temperature;BMP_pressure;BME280_temperature;BME280_humidity;BME280_pressure;Samples;Min_cycle;Max_cycle;Signal;HPM_P1;HPM_P2
2022/07/06 00:00:21;;;;;;;;;9.00;9.00;;;;;27.84;47.38;98809.22;6264792;27;97173;-52
2022/07/06 00:03:24;;;;;;;;;10.00;9.25;;;;;27.84;47.73;98812.00;6264667;27;97451;-56
2022/07/06 00:06:29;;;;;;;;;8.00;8.00;;;;;27.87;47.80;98814.09;6263828;27;96665;-50
2022/07/06 00:09:33;;;;;;;;;11.80;11.80;;;;;27.83;47.86;98818.69;6251419;27;97757;-63
2022/07/06 00:12:37;;;;;;;;;9.00;9.00;;;;;27.75;48.11;98814.84;6264045;27;97506;-61
2022/07/06 00:15:41;;;;;;;;;9.20;9.00;;;;;27.73;47.87;98813.53;6263740;27;98047;-65
2022/07/06 00:18:44;;;;;;;;;10.50;9.75;;;;;27.66;48.03;98804.97;6262547;27;97579;-64
2022/07/06 00:21:49;;;;;;;;;9.00;9.00;;;;;27.62;48.60;98815.88;6264674;27;97432;-63
2022/07/06 00:24:53;;;;;;;;;10.40;9.60;;;;;27.58;48.78;98809.41;6262880;27;96873;-58
2022/07/06 00:27:57;;;;;;;;;8.00;8.00;;;;;27.48;48.88;98809.75;6264156;27;96494;-59
2022/07/06 00:31:00;;;;;;;;;7.60;7.00;;;;;27.37;49.10;98805.72;6246670;27;97120;-57
2022/07/06 00:34:03;;;;;;;;;8.00;8.00;;;;;27.32;49.31;98805.94;6263078;27;96778;-59
2022/07/06 00:37:09;;;;;;;;;10.00;9.40;;;;;27.28;49.28;98796.66;6244702;27;97728;-62
2022/07/06 00:40:13;;;;;;;;;10.00;10.00;;;;;27.28;49.09;98804.97;6246009;27;96824;-58
2022/07/06 00:43:16;;;;;;;;;9.00;9.00;;;;;27.20;49.48;98803.06;6262905;27;98392;-60
2022/07/06 00:46:21;;;;;;;;;9.00;8.00;;;;;27.06;49.72;98795.81;6243004;27;97074;-55
2022/07/06 00:52:49;;;;;;;;;8.00;8.00;;;;;27.10;49.87;98799.53;6251654;27;96990;-53
2022/07/06 00:55:52;;;;;;;;;9.00;9.00;;;;;27.17;49.59;98800.97;6261296;27;98042;-55
2022/07/06 00:58:56;;;;;;;;;8.00;8.00;;;;;27.12;49.46;98800.00;6263209;27;97469;-59
2022/07/06 01:02:00;;;;;;;;;8.50;8.50;;;;;27.03;49.72;98799.22;6250936;27;96580;-60
2022/07/06 01:05:06;;;;;;;;;8.50;8.50;;;;;26.96;49.98;98798.13;6263017;27;97142;-60
2022/07/06 01:08:12;;;;;;;;;7.80;7.80;;;;;26.87;50.34;98797.34;6264542;27;96607;-58
2022/07/06 01:11:15;;;;;;;;;9.00;9.00;;;;;26.76;50.38;98799.63;6246909;27;96772;-59
2022/07/06 01:14:19;;;;;;;;;9.40;9.40;;;;;26.67;50.43;98799.66;6260116;27;97499;-61
2022/07/06 01:17:23;;;;;;;;;9.00;9.00;;;;;26.60;50.64;98796.56;6263410;27;97458;-60
2022/07/06 01:20:30;;;;;;;;;10.80;10.80;;;;;26.50;50.75;98802.44;6262608;27;96832;-60
2022/07/06 01:23:33;;;;;;;;;10.00;10.00;;;;;26.39;51.01;98790.09;6237974;27;96690;-57
2022/07/06 01:26:36;;;;;;;;;8.40;8.40;;;;;26.43;51.29;98799.38;6262054;27;96975;-60
2022/07/06 01:29:40;;;;;;;;;7.00;6.80;;;;;26.39;51.57;98803.91;6263290;27;97641;-57
2022/07/06 01:32:44;;;;;;;;;9.00;9.00;;;;;26.30;51.85;98797.59;6244992;27;97017;-58
2022/07/06 01:35:50;;;;;;;;;10.00;10.00;;;;;26.22;52.24;98804.75;6262053;27;96526;-58
2022/07/06 01:38:55;;;;;;;;;10.60;10.00;;;;;26.11;52.46;98803.44;6262162;27;97568;-57
2022/07/06 01:41:58;;;;;;;;;11.50;11.50;;;;;26.11;52.31;98805.38;6260861;27;98100;-57
2022/07/06 01:45:05;;;;;;;;;10.25;10.25;;;;;26.10;52.30;98801.81;6261513;27;96875;-62
2022/07/06 01:48:09;;;;;;;;;9.80;9.80;;;;;26.12;52.70;98802.31;6245251;27;97107;-62
2022/07/06 01:51:14;;;;;;;;;11.00;11.00;;;;;26.14;52.51;98802.81;6263201;27;97090;-60
2022/07/06 01:54:21;;;;;;;;;7.33;7.00;;;;;26.15;52.48;98807.16;6238939;27;97582;-59
2022/07/06 01:57:24;;;;;;;;;11.00;10.50;;;;;26.13;52.60;98803.13;6262684;27;96672;-59
2022/07/06 02:00:28;;;;;;;;;10.75;10.75;;;;;26.12;52.62;98810.59;6244255;27;97031;-59
2022/07/06 02:03:32;;;;;;;;;11.50;11.50;;;;;26.11;52.86;98817.25;6220190;27;96597;-57
2022/07/06 02:06:37;;;;;;;;;13.00;13.00;;;;;26.13;53.04;98814.97;6247128;27;97420;-58
2022/07/06 02:09:42;;;;;;;;;11.00;11.00;;;;;26.17;52.88;98820.66;6244369;27;97426;-60
2022/07/06 02:12:46;;;;;;;;;12.40;11.40;;;;;26.14;52.61;98810.28;6261785;27;98104;-59
2022/07/06 02:15:49;;;;;;;;;10.00;10.00;;;;;26.11;52.88;98803.44;6260265;27;96870;-59
2022/07/06 02:18:52;;;;;;;;;11.25;10.25;;;;;26.09;52.79;98802.97;6227062;27;97790;-58
2022/07/06 02:21:58;;;;;;;;;11.00;11.00;;;;;26.09;52.99;98804.91;6261827;27;96416;-60
2022/07/06 02:25:01;;;;;;;;;11.60;11.00;;;;;26.10;52.84;98801.81;6260595;27;96506;-62
2022/07/06 02:28:05;;;;;;;;;10.60;10.60;;;;;26.07;52.82;98801.66;6243247;27;97180;-58
2022/07/06 02:31:09;;;;;;;;;13.00;12.00;;;;;26.07;52.40;98805.22;6261701;27;96992;-59
2022/07/06 02:34:13;;;;;;;;;14.50;14.00;;;;;26.05;52.61;98803.91;6262078;27;98049;-60
2022/07/06 02:37:17;;;;;;;;;14.40;13.40;;;;;26.02;52.77;98801.81;6261259;27;97466;-62
2022/07/06 02:40:21;;;;;;;;;15.00;15.00;;;;;26.00;52.96;98806.88;6217821;28;97892;-60
2022/07/06 02:43:24;;;;;;;;;13.00;13.00;;;;;25.99;52.83;98805.22;6258043;27;97471;-60
2022/07/06 02:46:28;;;;;;;;;12.50;12.00;;;;;25.97;52.95;98811.06;6260877;27;96689;-60
2022/07/06 02:49:31;;;;;;;;;13.20;13.20;;;;;25.97;53.07;98807.50;6243650;27;97063;-60
2022/07/06 02:52:36;;;;;;;;;13.40;13.40;;;;;25.97;52.88;98816.59;6262422;27;96927;-61
2022/07/06 02:55:45;;;;;;;;;13.20;13.00;;;;;25.95;52.92;98818.06;6252920;27;97548;-60
2022/07/06 02:58:49;;;;;;;;;13.60;13.00;;;;;25.93;53.11;98821.16;6224888;27;99461;-59
2022/07/06 03:01:52;;;;;;;;;13.40;12.60;;;;;25.92;53.22;98824.22;6241797;27;97368;-61
2022/07/06 03:04:57;;;;;;;;;15.20;13.20;;;;;25.91;53.22;98819.84;6241938;27;96597;-60
2022/07/06 03:08:03;;;;;;;;;12.60;12.00;;;;;25.90;53.30;98826.50;6259897;27;97374;-60
2022/07/06 03:11:07;;;;;;;;;15.50;14.50;;;;;25.90;53.55;98829.28;6261691;27;96508;-62
2022/07/06 03:14:11;;;;;;;;;10.00;10.00;;;;;25.91;53.11;98828.94;6242836;27;97790;-58
2022/07/06 03:17:18;;;;;;;;;11.00;11.00;;;;;25.93;53.70;98828.63;6243879;27;97585;-61
2022/07/06 03:20:22;;;;;;;;;11.00;10.75;;;;;25.94;53.80;98836.59;6243430;27;96722;-56
2022/07/06 03:23:28;;;;;;;;;11.50;11.50;;;;;25.99;53.69;98819.84;6244041;27;97420;-57
2022/07/06 03:26:32;;;;;;;;;8.40;8.40;;;;;26.06;53.56;98830.41;6260841;27;96662;-53
2022/07/06 03:29:36;;;;;;;;;14.00;14.00;;;;;26.18;52.88;98838.88;6242924;27;96530;-59
2022/07/06 03:32:40;;;;;;;;;9.00;9.00;;;;;26.20;53.08;98840.16;6241003;27;97434;-59
2022/07/06 03:35:45;;;;;;;;;13.00;13.00;;;;;26.25;51.74;98851.09;6259856;27;96871;-56
2022/07/06 03:38:50;;;;;;;;;11.50;11.00;;;;;26.28;52.24;98849.63;6243151;27;96935;-58
2022/07/06 03:41:53;;;;;;;;;13.00;12.00;;;;;26.35;52.03;98849.13;6245428;27;97037;-58
2022/07/06 03:44:57;;;;;;;;;12.40;12.40;;;;;26.36;51.79;98848.81;6242018;27;96806;-59
2022/07/06 03:48:02;;;;;;;;;11.60;11.00;;;;;26.36;52.06;98851.56;6241300;27;97490;-60
2022/07/06 03:51:07;;;;;;;;;12.75;12.75;;;;;26.35;52.26;98849.94;6243756;27;96486;-58
2022/07/06 03:54:12;;;;;;;;;10.00;9.20;;;;;26.39;52.26;98844.59;6259160;27;99474;-62
2022/07/06 03:57:16;;;;;;;;;8.40;8.00;;;;;26.40;52.00;98844.25;6242538;27;97411;-61
2022/07/06 04:00:20;;;;;;;;;10.00;10.00;;;;;26.45;51.04;98848.78;6243826;27;96631;-62
2022/07/06 04:03:34;;;;;;;;;9.50;9.50;;;;;26.49;51.24;98841.47;6241915;27;96873;-57
2022/07/06 04:06:39;;;;;;;;;9.25;9.00;;;;;26.53;50.83;98839.69;6240533;27;96912;-61
2022/07/06 04:09:45;;;;;;;;;11.00;11.00;;;;;26.55;51.04;98848.47;6246732;27;97090;-59
2022/07/06 04:12:48;;;;;;;;;11.00;10.00;;;;;26.58;51.17;98848.63;6263756;27;97513;-59
2022/07/06 04:15:53;;;;;;;;;10.60;10.60;;;;;26.64;51.22;98847.31;6246507;27;97538;-56
2022/07/06 04:19:00;;;;;;;;;12.75;12.00;;;;;26.76;50.90;98854.13;6264490;27;97463;-58
2022/07/06 04:22:04;;;;;;;;;9.00;9.00;;;;;26.84;50.84;98856.84;6263259;27;96588;-58
2022/07/06 04:25:14;;;;;;;;;12.00;12.00;;;;;26.90;49.82;98857.53;6246757;27;96686;-62
2022/07/06 04:28:18;;;;;;;;;10.75;10.00;;;;;26.98;49.54;98857.50;6246158;27;96879;-63
2022/07/06 04:31:22;;;;;;;;;12.00;11.00;;;;;27.12;49.64;98865.63;6246616;27;97659;-57
2022/07/06 04:34:27;;;;;;;;;6.25;6.00;;;;;27.16;49.27;98874.88;6245316;27;97461;-51
2022/07/06 04:37:31;;;;;;;;;15.80;14.80;;;;;27.15;47.98;98862.19;6246961;27;96445;-62
2022/07/06 04:40:36;;;;;;;;;6.60;6.20;;;;;27.23;48.47;98886.25;6263350;27;96644;-51
2022/07/06 04:43:44;;;;;;;;;10.60;10.60;;;;;27.28;48.44;98893.53;6245664;27;96825;-56
2022/07/06 04:46:51;;;;;;;;;10.00;9.60;;;;;27.33;48.16;98888.66;6249772;27;97734;-61
2022/07/06 04:49:56;;;;;;;;;10.40;10.40;;;;;27.38;47.10;98896.78;6256295;27;97537;-56
2022/07/06 04:53:00;;;;;;;;;10.75;9.75;;;;;27.45;47.11;98901.81;6263211;27;97190;-62
2022/07/06 04:56:07;;;;;;;;;9.75;8.75;;;;;27.54;46.88;98910.91;6246327;27;96673;-61
2022/07/06 04:59:13;;;;;;;;;9.20;9.20;;;;;27.38;46.87;98877.38;6246709;27;96463;-58
2022/07/06 05:02:17;;;;;;;;;11.50;11.50;;;;;27.62;46.23;98909.22;6244736;27;96729;-53
2022/07/06 05:05:21;;;;;;;;;8.00;8.00;;;;;27.71;46.36;98912.78;6246043;27;96599;-61
2022/07/06 05:08:26;;;;;;;;;9.00;9.00;;;;;27.79;46.28;98906.38;6245377;27;96930;-53
2022/07/06 05:11:31;;;;;;;;;8.60;8.60;;;;;27.89;45.50;98908.78;6244013;27;97530;-57
2022/07/06 05:14:35;;;;;;;;;11.00;11.00;;;;;27.97;45.03;98916.22;6263298;27;97079;-53
2022/07/06 05:17:41;;;;;;;;;9.00;8.40;;;;;28.03;45.29;98914.88;6238062;27;98070;-53
2022/07/06 05:20:45;;;;;;;;;11.80;11.80;;;;;28.13;44.78;98916.47;6236442;27;97715;-54
2022/07/06 05:23:49;;;;;;;;;13.40;13.00;;;;;28.21;44.22;98927.50;6245489;27;96848;-63
2022/07/06 05:26:53;;;;;;;;;7.00;7.00;;;;;28.26;44.92;98934.81;6244844;27;96884;-57
2022/07/06 05:29:57;;;;;;;;;9.00;9.00;;;;;28.30;44.60;98924.66;6244909;27;97055;-61
2022/07/06 05:33:01;;;;;;;;;10.00;9.50;;;;;28.31;44.93;98923.50;6244797;27;97529;-56
2022/07/06 05:36:06;;;;;;;;;10.40;10.00;;;;;28.35;44.22;98930.81;6243158;27;96967;-62
2022/07/06 05:39:09;;;;;;;;;12.00;10.00;;;;;28.42;44.41;98928.34;6242777;27;96911;-54
2022/07/06 05:42:14;;;;;;;;;10.60;10.60;;;;;28.50;43.83;98929.41;6237335;27;97686;-57
2022/07/06 05:45:19;;;;;;;;;7.00;7.00;;;;;28.58;44.12;98922.19;6244386;27;97703;-56
2022/07/06 05:51:43;;;;;;;;;11.60;11.60;;;;;28.77;43.37;98919.75;6242595;27;97500;-56
2022/07/06 05:54:46;;;;;;;;;9.75;9.75;;;;;28.87;42.59;98924.88;6261759;27;96698;-53
2022/07/06 05:57:53;;;;;;;;;9.00;9.00;;;;;28.93;42.51;98931.03;6243585;27;97448;-60
2022/07/06 06:00:57;;;;;;;;;9.50;9.50;;;;;28.96;42.28;98925.59;6241171;27;96879;-61
2022/07/06 06:04:01;;;;;;;;;10.80;10.80;;;;;29.00;42.14;98934.84;6243148;27;96651;-58
2022/07/06 06:07:05;;;;;;;;;12.00;11.00;;;;;28.99;41.37;98927.69;6261434;27;97441;-62
2022/07/06 06:10:11;;;;;;;;;9.00;9.00;;;;;29.02;42.02;98932.56;6244634;27;97467;-61
2022/07/06 06:13:16;;;;;;;;;6.00;6.00;;;;;29.03;41.80;98925.84;6263967;27;96888;-53
2022/07/06 06:16:19;;;;;;;;;6.60;6.60;;;;;29.11;41.48;98930.50;6245620;27;96699;-57
2022/07/06 06:19:23;;;;;;;;;10.40;9.40;;;;;29.18;41.40;98925.19;6245077;27;97217;-52
2022/07/06 06:22:26;;;;;;;;;10.00;9.40;;;;;29.21;41.24;98926.47;6263245;27;97412;-53
2022/07/06 06:25:32;;;;;;;;;11.00;10.00;;;;;29.27;40.39;98936.22;6263076;27;96557;-59
2022/07/06 06:28:37;;;;;;;;;10.40;9.40;;;;;29.27;39.71;98937.00;6262667;27;96653;-64
2022/07/06 06:31:40;;;;;;;;;11.40;11.00;;;;;29.29;40.42;98939.44;6260650;27;97053;-60
2022/07/06 06:34:44;;;;;;;;;8.60;8.60;;;;;29.32;40.06;98941.59;6224393;27;98531;-61
2022/07/06 06:37:47;;;;;;;;;9.00;9.00;;;;;29.38;39.46;98937.41;6262596;27;96621;-60
2022/07/06 06:40:50;;;;;;;;;12.40;10.80;;;;;29.43;39.83;98942.75;6262229;27;96728;-61
2022/07/06 06:43:55;;;;;;;;;10.00;9.60;;;;;29.51;40.00;98943.81;6262588;27;96743;-58
2022/07/06 06:47:04;;;;;;;;;9.00;9.00;;;;;29.55;39.18;98945.56;6244507;27;97990;-60
2022/07/06 06:50:08;;;;;;;;;8.80;8.80;;;;;29.63;39.39;98944.63;6262926;27;97442;-58
2022/07/06 06:53:12;;;;;;;;;10.00;9.00;;;;;29.68;38.44;98946.38;6243570;27;96736;-60
2022/07/06 06:56:16;;;;;;;;;8.60;8.00;;;;;29.76;38.66;98944.66;6262343;27;96980;-62
2022/07/06 06:59:21;;;;;;;;;8.20;8.20;;;;;29.82;37.94;98946.81;6262675;27;96705;-59
2022/07/06 07:02:24;;;;;;;;;10.00;10.00;;;;;29.87;37.84;98948.56;6243816;27;97221;-64
2022/07/06 07:05:28;;;;;;;;;8.00;8.00;;;;;29.89;37.88;98955.44;6261580;27;97685;-57
2022/07/06 07:08:31;;;;;;;;;9.00;9.00;;;;;29.94;37.45;98944.09;6244583;27;97422;-61
2022/07/06 07:11:34;;;;;;;;;10.75;10.75;;;;;30.01;37.23;98938.75;6262589;27;96848;-58
2022/07/06 07:14:39;;;;;;;;;9.00;9.00;;;;;30.10;37.27;98939.44;6260350;27;97047;-58
2022/07/06 07:17:43;;;;;;;;;11.00;11.00;;;;;30.25;37.41;98932.34;6260658;27;97424;-59
2022/07/06 07:20:46;;;;;;;;;9.80;9.80;;;;;30.38;37.27;98933.97;6262635;27;97035;-60
2022/07/06 07:23:50;;;;;;;;;9.20;9.20;;;;;30.47;36.51;98934.66;6261879;27;96830;-63
2022/07/06 07:26:53;;;;;;;;;9.60;9.00;;;;;30.52;36.74;98941.94;6242051;27;97566;-58
2022/07/06 07:29:58;;;;;;;;;10.00;10.00;;;;;30.61;37.20;98956.53;6244006;27;98863;-61
2022/07/06 07:33:01;;;;;;;;;9.60;8.80;;;;;30.67;36.33;98945.94;6262250;27;97400;-59
2022/07/06 07:36:05;;;;;;;;;9.00;8.67;;;;;30.71;36.29;98956.03;6261681;27;97381;-61
2022/07/06 07:39:09;;;;;;;;;13.00;13.00;;;;;30.77;35.82;98965.75;6261046;27;97529;-58
2022/07/06 07:42:12;;;;;;;;;11.00;10.40;;;;;30.88;36.99;98961.31;6261760;27;97534;-58
2022/07/06 07:45:21;;;;;;;;;11.50;11.00;;;;;31.01;36.99;98962.06;6266168;27;97354;-60
2022/07/06 07:48:25;;;;;;;;;9.00;9.00;;;;;31.13;35.96;98969.59;6266360;27;96849;-60
2022/07/06 07:51:29;;;;;;;;;8.60;8.60;;;;;31.24;36.19;98971.47;6266364;27;98083;-62
2022/07/06 07:54:33;;;;;;;;;9.60;9.60;;;;;31.12;34.85;98938.13;6247457;27;97578;-62
2022/07/06 07:57:37;;;;;;;;;12.80;12.80;;;;;31.35;35.95;98964.22;6266489;27;97484;-60
2022/07/06 08:00:41;;;;;;;;;11.00;11.00;;;;;31.48;35.51;98978.88;6265706;27;97339;-58
2022/07/06 08:03:45;;;;;;;;;9.60;9.00;;;;;31.61;34.03;98965.72;6265668;27;97481;-60
2022/07/06 08:06:48;;;;;;;;;10.80;10.20;;;;;31.70;33.97;98967.19;6265321;27;97100;-63
2022/07/06 08:09:52;;;;;;;;;11.00;11.00;;;;;31.83;34.24;98979.84;6265441;27;97251;-59
2022/07/06 08:12:55;;;;;;;;;12.00;12.00;;;;;31.89;33.65;98976.78;6265591;27;97511;-57
2022/07/06 08:16:00;;;;;;;;;10.60;10.60;;;;;31.91;33.67;98977.25;6247535;27;98448;-58
2022/07/06 08:19:03;;;;;;;;;9.80;9.20;;;;;31.90;33.43;98972.84;6265268;27;97114;-58
2022/07/06 08:22:13;;;;;;;;;10.20;10.20;;;;;31.89;33.36;98969.22;6265337;27;97651;-58
2022/07/06 08:25:16;;;;;;;;;10.00;10.00;;;;;31.95;32.86;98969.78;6264910;27;97085;-59
2022/07/06 08:28:20;;;;;;;;;9.80;9.80;;;;;32.08;32.67;98965.69;6262508;27;96643;-61
2022/07/06 08:31:26;;;;;;;;;9.00;9.00;;;;;32.20;32.97;98976.78;6265158;27;97467;-60
2022/07/06 08:34:50;;;;;;;;;13.50;12.75;;;;;32.30;33.44;98975.41;6265048;27;96782;-59
2022/07/06 08:37:53;;;;;;;;;10.00;10.00;;;;;32.29;32.92;98971.00;6265402;27;96566;-62
2022/07/06 08:40:57;;;;;;;;;8.25;8.00;;;;;32.19;33.06;98970.41;6264707;27;96643;-61
2022/07/06 08:44:02;;;;;;;;;10.00;9.00;;;;;32.02;32.75;98978.28;6264766;27;97859;-60
2022/07/06 08:47:07;;;;;;;;;8.00;8.00;;;;;31.77;33.51;98981.28;6264521;27;96669;-61
2022/07/06 08:50:16;;;;;;;;;10.60;10.00;;;;;31.53;33.89;98980.59;6246984;27;96747;-59
2022/07/06 08:53:21;;;;;;;;;10.25;10.25;;;;;31.24;34.71;98982.63;6245643;27;98420;-58
2022/07/06 08:56:25;;;;;;;;;10.60;10.60;;;;;31.03;35.63;98990.41;6264769;27;97502;-64
2022/07/06 08:59:30;;;;;;;;;11.20;10.60;;;;;30.82;35.56;98998.09;6264350;27;97042;-56
2022/07/06 09:02:36;;;;;;;;;13.33;13.00;;;;;30.67;36.51;98985.72;6264495;27;97443;-62
2022/07/06 09:05:41;;;;;;;;;13.40;13.00;;;;;30.46;36.49;98994.22;6264799;27;97422;-53
2022/07/06 09:08:45;;;;;;;;;19.00;18.00;;;;;30.28;37.68;98980.91;6264888;27;97710;-56
2022/07/06 09:11:48;;;;;;;;;19.80;17.40;;;;;30.09;38.48;98998.19;6245575;27;97566;-56
2022/07/06 09:14:52;;;;;;;;;23.00;20.00;;;;;29.93;38.50;99009.19;6264266;27;97441;-58
2022/07/06 09:17:57;;;;;;;;;24.20;21.80;;;;;29.83;38.61;99014.34;6264122;27;97402;-59
2022/07/06 09:21:01;;;;;;;;;23.00;21.00;;;;;29.74;38.87;99024.75;6228722;27;100387;-60
2022/07/06 09:24:08;;;;;;;;;20.20;20.20;;;;;29.47;39.14;98988.13;6228227;27;99515;-58
2022/07/06 09:27:17;;;;;;;;;22.75;21.25;;;;;29.70;38.33;99022.69;6264401;27;96254;-64
2022/07/06 09:30:21;;;;;;;;;23.00;20.75;;;;;29.76;38.26;99009.38;6263825;27;97005;-59
2022/07/06 09:33:25;;;;;;;;;22.00;20.40;;;;;29.76;37.67;99012.16;6263975;27;96900;-59
2022/07/06 09:36:44;;;;;;;;;19.20;19.20;;;;;29.80;37.71;99003.94;6245804;27;96876;-64
2022/07/06 09:39:50;;;;;;;;;21.40;20.40;;;;;29.91;37.48;99005.13;6264173;27;96396;-60
2022/07/06 09:43:08;;;;;;;;;22.20;22.00;;;;;30.16;37.78;98995.63;6263292;27;96633;-59
2022/07/06 09:46:15;;;;;;;;;22.00;21.00;;;;;30.34;36.67;98991.44;6264305;27;96658;-60
2022/07/06 09:49:24;;;;;;;;;20.80;20.00;;;;;30.57;36.56;99002.09;6262801;27;96560;-52
2022/07/06 09:52:27;;;;;;;;;22.40;21.60;;;;;30.79;36.39;98993.25;6262995;27;97359;-59
2022/07/06 09:55:31;;;;;;;;;19.40;19.40;;;;;31.01;35.79;98994.66;6255955;27;97475;-65
2022/07/06 09:58:39;;;;;;;;;21.80;20.20;;;;;31.12;35.25;98991.06;6252987;27;97096;-59
2022/07/06 10:02:03;;;;;;;;;24.00;23.00;;;;;31.34;35.77;98998.81;6263201;27;96685;-60
2022/07/06 10:05:09;;;;;;;;;21.40;21.40;;;;;31.39;35.23;99003.31;6263269;27;96538;-61
2022/07/06 10:08:13;;;;;;;;;24.00;22.00;;;;;31.36;35.42;99007.66;6263569;27;97467;-59
2022/07/06 10:11:16;;;;;;;;;19.40;18.60;;;;;31.28;33.86;98996.63;6244462;27;97809;-59
2022/07/06 10:14:22;;;;;;;;;18.67;18.00;;;;;31.21;33.49;98991.72;6243763;27;97076;-62
2022/07/06 10:17:26;;;;;;;;;19.00;19.00;;;;;31.26;33.36;98996.22;6263236;27;96877;-60
2022/07/06 10:20:33;;;;;;;;;19.00;18.40;;;;;31.38;33.90;99001.69;6244631;27;97121;-57
2022/07/06 10:23:37;;;;;;;;;21.40;21.00;;;;;31.55;33.27;99003.34;6263178;27;96786;-63
2022/07/06 10:26:41;;;;;;;;;20.00;19.20;;;;;31.72;32.93;99001.06;6262576;27;96902;-59
2022/07/06 10:29:45;;;;;;;;;19.00;18.40;;;;;31.89;32.74;98990.72;6262739;27;96983;-58
2022/07/06 10:32:51;;;;;;;;;19.00;18.00;;;;;32.03;32.14;98993.88;6244003;27;97465;-56
2022/07/06 10:35:57;;;;;;;;;18.40;17.40;;;;;32.06;31.47;98982.00;6263148;27;97457;-61
2022/07/06 10:41:02;;;;;;;;;18.00;17.00;;;;;32.11;30.48;98990.09;6263375;27;97410;-59
2022/07/06 10:42:43;;;;;;;;;17.00;17.00;;;;;32.16;30.66;98987.03;6262296;27;96862;-62
2022/07/06 10:45:56;;;;;;;;;17.00;17.00;;;;;32.22;30.21;98988.38;6237934;28;96610;-56
2022/07/06 10:48:59;;;;;;;;;18.00;17.60;;;;;32.25;30.43;98979.31;6237892;28;96549;-56
2022/07/06 10:52:06;;;;;;;;;14.40;14.40;;;;;32.30;30.65;98979.03;6242634;27;98387;-60
2022/07/06 10:55:32;;;;;;;;;17.00;16.00;;;;;32.36;30.16;98980.34;6262498;27;96827;-60
2022/07/06 10:58:36;;;;;;;;;12.75;12.75;;;;;32.45;29.99;98985.75;6262563;27;96696;-62
2022/07/06 11:01:40;;;;;;;;;15.60;15.40;;;;;32.57;29.61;98993.97;6262099;27;96840;-64
2022/07/06 11:04:50;;;;;;;;;15.00;14.40;;;;;32.67;29.44;98991.44;6262027;27;97043;-60
2022/07/06 11:08:02;;;;;;;;;13.00;13.00;;;;;32.78;29.97;98988.91;6261935;27;97376;-60
2022/07/06 11:11:11;;;;;;;;;13.80;13.00;;;;;32.95;29.97;98990.44;6262008;27;96891;-60
2022/07/06 11:14:17;;;;;;;;;15.75;15.75;;;;;32.99;29.81;98992.13;6261417;27;97163;-58
2022/07/06 11:17:22;;;;;;;;;13.00;13.00;;;;;32.91;29.19;98993.16;6242461;27;97541;-61
2022/07/06 11:20:25;;;;;;;;;13.25;13.00;;;;;32.90;29.11;98999.09;6248636;27;97421;-54
2022/07/06 11:23:31;;;;;;;;;7.50;7.50;;;;;32.88;29.55;98991.09;6266549;27;96585;-57
2022/07/06 11:26:36;;;;;;;;;16.00;16.00;;;;;32.84;29.42;98992.22;6266693;27;96548;-62
2022/07/06 11:29:44;;;;;;;;;15.60;14.00;;;;;32.77;29.21;98989.25;6266629;27;96884;-61
2022/07/06 11:32:48;;;;;;;;;15.00;15.00;;;;;32.56;29.61;98987.56;6265632;27;97120;-65
2022/07/06 11:35:51;;;;;;;;;14.00;14.00;;;;;32.41;30.03;98984.81;6247607;27;96656;-56
2022/07/06 11:38:56;;;;;;;;;18.00;16.00;;;;;32.28;30.56;98977.75;6247207;27;97167;-61
2022/07/06 11:42:01;;;;;;;;;12.80;12.40;;;;;32.33;30.69;98989.44;6265171;27;97046;-57
2022/07/06 11:45:05;;;;;;;;;14.60;14.00;;;;;32.24;30.73;98983.25;6266651;27;96704;-57
2022/07/06 11:48:12;;;;;;;;;17.00;16.00;;;;;32.15;30.52;98972.31;6248210;27;97375;-57
2022/07/06 11:51:16;;;;;;;;;15.00;15.00;;;;;32.06;30.64;98993.16;6266325;27;97517;-58
2022/07/06 11:54:23;;;;;;;;;14.60;14.20;;;;;31.91;30.73;98986.44;6266222;27;97112;-61
2022/07/06 11:57:30;;;;;;;;;21.75;21.00;;;;;31.79;31.38;99001.25;6265217;27;96967;-53
2022/07/06 12:00:34;;;;;;;;;15.00;15.00;;;;;31.69;31.32;98996.22;6265787;27;96280;-54
2022/07/06 12:03:45;;;;;;;;;13.00;13.00;;;;;31.61;32.22;98997.22;6265960;27;97810;-57
2022/07/06 12:06:49;;;;;;;;;14.00;14.00;;;;;31.55;33.12;98990.22;6265531;27;97196;-57
2022/07/06 12:09:53;;;;;;;;;12.00;11.33;;;;;31.44;32.34;98989.13;6265517;27;97070;-61
2022/07/06 12:13:03;;;;;;;;;13.40;13.00;;;;;31.33;32.63;98986.06;6265480;27;97670;-59
2022/07/06 12:16:13;;;;;;;;;14.00;13.00;;;;;31.30;32.21;98983.19;6265110;27;97549;-57
2022/07/06 12:19:17;;;;;;;;;9.50;8.75;;;;;31.28;32.21;98977.97;6265033;27;97150;-54
2022/07/06 12:22:26;;;;;;;;;13.75;13.75;;;;;31.05;31.27;98937.94;6265589;27;97231;-57
2022/07/06 12:25:34;;;;;;;;;11.00;11.00;;;;;31.22;30.83;98959.91;6247152;27;97060;-58
2022/07/06 12:28:38;;;;;;;;;14.00;13.67;;;;;31.44;31.09;98968.81;6264108;27;96570;-56
2022/07/06 12:31:43;;;;;;;;;11.25;11.25;;;;;31.58;30.72;98963.66;6246812;27;97578;-62
2022/07/06 12:34:47;;;;;;;;;10.00;10.00;;;;;31.74;30.97;98962.50;6265175;27;96912;-60
2022/07/06 12:37:56;;;;;;;;;10.75;10.75;;;;;31.81;30.76;98964.66;6265072;27;97008;-55
2022/07/06 12:41:02;;;;;;;;;13.00;13.00;;;;;31.92;30.78;98962.91;6263450;27;96698;-60
2022/07/06 12:44:08;;;;;;;;;12.00;12.00;;;;;32.02;30.63;98956.78;6243613;27;97517;-64
2022/07/06 12:47:11;;;;;;;;;13.40;13.40;;;;;32.18;29.99;98954.00;6265207;27;97439;-58
2022/07/06 12:50:15;;;;;;;;;9.00;9.00;;;;;32.13;29.33;98945.94;6246261;27;96460;-61
2022/07/06 12:53:25;;;;;;;;;11.00;10.00;;;;;32.24;29.75;98961.75;6264631;27;96778;-60
2022/07/06 12:56:31;;;;;;;;;10.00;10.00;;;;;32.25;29.05;98956.97;6265347;27;96483;-56
2022/07/06 12:59:37;;;;;;;;;11.00;11.00;;;;;32.31;29.13;98954.69;6264575;27;96506;-58
2022/07/06 13:02:41;;;;;;;;;8.25;8.00;;;;;32.41;28.68;98954.94;6264484;27;96941;-58
2022/07/06 13:06:05;;;;;;;;;7.00;7.00;;;;;32.52;28.04;98946.81;6264257;27;97598;-61
2022/07/06 13:09:08;;;;;;;;;10.00;9.40;;;;;32.63;27.86;98950.66;6263909;27;96905;-63
2022/07/06 13:12:13;;;;;;;;;7.50;7.50;;;;;32.74;27.54;98954.50;6263043;27;96890;-61
2022/07/06 13:15:16;;;;;;;;;8.40;8.40;;;;;32.81;28.02;98953.84;6246202;27;99466;-52
2022/07/06 13:18:20;;;;;;;;;10.00;10.00;;;;;32.79;27.74;98965.38;6264110;27;97237;-60
2022/07/06 13:21:23;;;;;;;;;8.00;8.00;;;;;32.74;27.59;98978.81;6265069;27;96586;-58
2022/07/06 13:24:27;;;;;;;;;10.00;9.00;;;;;32.49;27.37;98953.94;6246326;27;97969;-55
2022/07/06 13:27:32;;;;;;;;;10.00;10.00;;;;;32.52;27.82;98971.94;6260717;27;96674;-58
2022/07/06 13:30:36;;;;;;;;;5.25;5.00;;;;;32.42;27.59;98969.72;6263353;27;96515;-58
2022/07/06 13:33:39;;;;;;;;;8.00;7.80;;;;;32.39;27.65;98968.47;6263572;27;96841;-61
2022/07/06 13:36:43;;;;;;;;;8.00;8.00;;;;;32.37;27.40;98970.81;6264373;27;97517;-59
2022/07/06 13:39:47;;;;;;;;;8.00;7.60;;;;;32.32;27.91;98971.09;6263194;27;96773;-59
2022/07/06 13:42:54;;;;;;;;;8.40;8.00;;;;;32.32;27.48;98971.09;6262262;27;97506;-57
2022/07/06 13:45:57;;;;;;;;;8.00;8.00;;;;;32.36;26.74;98974.75;6264372;27;96826;-60
2022/07/06 13:49:00;;;;;;;;;8.00;8.00;;;;;32.42;26.81;98980.88;6263677;27;97411;-61
2022/07/06 13:52:05;;;;;;;;;7.00;7.00;;;;;32.48;26.98;98980.22;6264318;27;96618;-60
2022/07/06 13:55:09;;;;;;;;;7.25;6.75;;;;;32.53;26.01;98979.94;6262855;27;98043;-58
2022/07/06 13:58:14;;;;;;;;;6.50;6.50;;;;;32.57;26.94;98986.41;6263448;27;97379;-58
2022/07/06 14:01:17;;;;;;;;;8.00;8.00;;;;;32.63;27.24;98984.97;6263581;27;96704;-59
2022/07/06 14:04:27;;;;;;;;;7.40;7.40;;;;;32.67;27.36;98979.47;6263444;27;97522;-61
2022/07/06 14:07:31;;;;;;;;;6.00;6.00;;;;;32.62;26.92;98972.16;6263113;27;98451;-65
2022/07/06 14:10:34;;;;;;;;;8.00;8.00;;;;;32.57;27.08;98975.25;6263999;27;97462;-56
2022/07/06 14:13:39;;;;;;;;;9.00;9.00;;;;;32.51;27.52;98981.47;6264225;27;96962;-61
2022/07/06 14:16:43;;;;;;;;;7.40;7.40;;;;;32.38;27.19;98985.56;6263809;27;97223;-59
2022/07/06 14:19:46;;;;;;;;;7.00;7.00;;;;;32.25;27.21;98982.09;6228137;27;97728;-58
2022/07/06 14:22:50;;;;;;;;;8.60;8.60;;;;;32.09;27.46;98984.88;6228891;27;100269;-61
2022/07/06 14:25:54;;;;;;;;;7.00;7.00;;;;;31.80;27.34;98958.28;6263128;27;97446;-63